sensor_id;sensor_type;location;lat;lon;timestamp;pressure;altitude;pressure_sealevel;temperature;humidity
7018;BME280;3549;42.162;24.726;2022-09-19T00:01:28;47653.63;;;-141.97;63.33
7018;BME280;3549;42.162;24.726;2022-09-19T00:03:57;47647.84;;;-141.97;63.33
7018;BME280;3549;42.162;24.726;2022-09-19T00:06:23;47649.78;;;-141.97;64.02
7018;BME280;3549;42.162;24.726;2022-09-19T00:08:49;47620.94;;;-141.97;64.59
7018;BME280;3549;42.162;24.726;2022-09-19T00:11:16;47669.00;;;-141.97;65.15
7018;BME280;3549;42.162;24.726;2022-09-19T00:13:46;47726.66;;;-141.97;65.29
7018;BME280;3549;42.162;24.726;2022-09-19T00:16:20;47628.63;;;-141.97;65.37
7018;BME280;3549;42.162;24.726;2022-09-19T00:18:47;47659.38;;;-141.97;65.94
7018;BME280;3549;42.162;24.726;2022-09-19T00:21:24;47730.50;;;-141.97;66.25
7018;BME280;3549;42.162;24.726;2022-09-19T00:23:50;47665.16;;;-141.97;66.91
7018;BME280;3549;42.162;24.726;2022-09-19T00:26:35;47659.38;;;-141.97;67.20
7018;BME280;3549;42.162;24.726;2022-09-19T00:29:01;47620.94;;;-141.97;68.30
7018;BME280;3549;42.162;24.726;2022-09-19T00:31:26;47657.47;;;-141.97;68.40
7018;BME280;3549;42.162;24.726;2022-09-19T00:33:53;47653.63;;;-141.97;68.81
7018;BME280;3549;42.162;24.726;2022-09-19T00:36:19;47653.63;;;-141.97;68.93
7018;BME280;3549;42.162;24.726;2022-09-19T00:38:45;47619.03;;;-141.97;68.70
7018;BME280;3549;42.162;24.726;2022-09-19T00:41:20;47659.38;;;-141.97;69.05
7018;BME280;3549;42.162;24.726;2022-09-19T00:43:55;47649.78;;;-141.97;68.46
7018;BME280;3549;42.162;24.726;2022-09-19T00:46:22;47634.41;;;-141.97;68.62
7018;BME280;3549;42.162;24.726;2022-09-19T00:49:02;47653.63;;;-141.97;68.17
7018;BME280;3549;42.162;24.726;2022-09-19T00:51:45;47672.84;;;-141.97;68.65
7018;BME280;3549;42.162;24.726;2022-09-19T00:54:16;47613.25;;;-141.97;68.68
7018;BME280;3549;42.162;24.726;2022-09-19T00:56:46;47647.84;;;-141.97;68.42
7018;BME280;3549;42.162;24.726;2022-09-19T00:59:13;47688.22;;;-141.97;68.17
7018;BME280;3549;42.162;24.726;2022-09-19T01:01:40;47699.75;;;-141.97;68.13
7018;BME280;3549;42.162;24.726;2022-09-19T01:04:20;47649.78;;;-141.97;68.39
7018;BME280;3549;42.162;24.726;2022-09-19T01:15:02;47670.91;;;-141.97;66.36
7018;BME280;3549;42.162;24.726;2022-09-19T01:20:19;47665.16;;;-141.97;66.86
7018;BME280;3549;42.162;24.726;2022-09-19T01:26:02;47611.34;;;-141.97;66.25
7018;BME280;3549;42.162;24.726;2022-09-19T01:28:39;47642.09;;;-141.97;66.77
7018;BME280;3549;42.162;24.726;2022-09-19T01:31:11;47651.69;;;-141.97;66.67
7018;BME280;3549;42.162;24.726;2022-09-19T01:34:06;47669.00;;;-141.97;66.73
7018;BME280;3549;42.162;24.726;2022-09-19T01:36:38;47669.00;;;-141.97;66.63
7018;BME280;3549;42.162;24.726;2022-09-19T01:39:08;47684.38;;;-141.97;65.55
7018;BME280;3549;42.162;24.726;2022-09-19T01:41:35;47680.53;;;-141.97;65.58
7018;BME280;3549;42.162;24.726;2022-09-19T01:44:02;47665.16;;;-141.97;65.22
7018;BME280;3549;42.162;24.726;2022-09-19T01:46:51;47619.03;;;-141.97;64.48
7018;BME280;3549;42.162;24.726;2022-09-19T01:57:45;47672.84;;;-141.97;62.80
7018;BME280;3549;42.162;24.726;2022-09-19T02:00:15;47647.84;;;-141.97;63.51
7018;BME280;3549;42.162;24.726;2022-09-19T02:03:18;47642.09;;;-141.97;63.73
7018;BME280;3549;42.162;24.726;2022-09-19T02:05:58;47649.78;;;-141.97;64.31
7018;BME280;3549;42.162;24.726;2022-09-19T02:11:02;47667.06;;;-141.97;64.22
7018;BME280;3549;42.162;24.726;2022-09-19T02:13:31;47680.53;;;-141.97;65.23
7018;BME280;3549;42.162;24.726;2022-09-19T02:16:09;47615.19;;;-141.97;65.50
7018;BME280;3549;42.162;24.726;2022-09-19T02:18:54;47626.72;;;-141.97;66.10
7018;BME280;3549;42.162;24.726;2022-09-19T02:21:31;47634.41;;;-141.97;65.26
7018;BME280;3549;42.162;24.726;2022-09-19T02:24:01;47626.72;;;-141.97;65.02
7018;BME280;3549;42.162;24.726;2022-09-19T02:26:32;47609.41;;;-141.97;64.39
7018;BME280;3549;42.162;24.726;2022-09-19T02:29:00;47667.06;;;-141.97;64.09
7018;BME280;3549;42.162;24.726;2022-09-19T02:31:26;47611.34;;;-141.97;64.06
7018;BME280;3549;42.162;24.726;2022-09-19T02:33:55;47649.78;;;-141.97;63.21
7018;BME280;3549;42.162;24.726;2022-09-19T02:41:43;47615.19;;;-141.97;62.79
7018;BME280;3549;42.162;24.726;2022-09-19T02:44:34;47682.47;;;-141.97;63.35
7018;BME280;3549;42.162;24.726;2022-09-19T02:47:20;47707.44;;;-141.97;63.82
7018;BME280;3549;42.162;24.726;2022-09-19T02:52:18;47630.56;;;-141.97;64.24
7018;BME280;3549;42.162;24.726;2022-09-19T02:54:50;47661.31;;;-141.97;63.95
7018;BME280;3549;42.162;24.726;2022-09-19T02:57:20;47701.69;;;-141.97;64.43
7018;BME280;3549;42.162;24.726;2022-09-19T02:59:49;47663.22;;;-141.97;64.91
7018;BME280;3549;42.162;24.726;2022-09-19T03:02:19;47619.03;;;-141.97;66.05
7018;BME280;3549;42.162;24.726;2022-09-19T03:04:54;47647.84;;;-141.97;66.95
7018;BME280;3549;42.162;24.726;2022-09-19T03:07:26;47642.09;;;-141.97;67.49
7018;BME280;3549;42.162;24.726;2022-09-19T03:12:38;47611.34;;;-141.97;69.37
7018;BME280;3549;42.162;24.726;2022-09-19T03:15:06;47619.03;;;-141.97;69.13
7018;BME280;3549;42.162;24.726;2022-09-19T03:17:38;47638.25;;;-141.97;69.46
7018;BME280;3549;42.162;24.726;2022-09-19T03:20:07;47709.38;;;-141.97;68.91
7018;BME280;3549;42.162;24.726;2022-09-19T03:22:37;47634.41;;;-141.97;68.33
7018;BME280;3549;42.162;24.726;2022-09-19T03:25:02;47634.41;;;-141.97;68.62
7018;BME280;3549;42.162;24.726;2022-09-19T03:27:28;47603.66;;;-141.97;68.43
7018;BME280;3549;42.162;24.726;2022-09-19T03:29:53;47615.19;;;-141.97;68.01
7018;BME280;3549;42.162;24.726;2022-09-19T03:32:18;47653.63;;;-141.97;67.23
7018;BME280;3549;42.162;24.726;2022-09-19T03:34:50;47624.78;;;-141.97;67.40
7018;BME280;3549;42.162;24.726;2022-09-19T03:37:18;47669.00;;;-141.97;67.84
7018;BME280;3549;42.162;24.726;2022-09-19T03:39:44;47674.78;;;-141.97;67.29
7018;BME280;3549;42.162;24.726;2022-09-19T03:42:10;47634.41;;;-141.97;67.09
7018;BME280;3549;42.162;24.726;2022-09-19T03:44:36;47607.50;;;-141.97;66.82
7018;BME280;3549;42.162;24.726;2022-09-19T03:47:01;47670.91;;;-141.97;65.35
7018;BME280;3549;42.162;24.726;2022-09-19T03:49:27;47626.72;;;-141.97;65.79
7018;BME280;3549;42.162;24.726;2022-09-19T03:51:53;47634.41;;;-141.97;66.00
7018;BME280;3549;42.162;24.726;2022-09-19T03:54:18;47742.03;;;-141.97;65.38
7018;BME280;3549;42.162;24.726;2022-09-19T03:56:44;47647.84;;;-141.97;66.19
7018;BME280;3549;42.162;24.726;2022-09-19T03:59:09;47599.81;;;-141.97;65.86
7018;BME280;3549;42.162;24.726;2022-09-19T04:01:34;47615.19;;;-141.97;66.19
7018;BME280;3549;42.162;24.726;2022-09-19T04:04:00;47615.19;;;-141.97;66.26
7018;BME280;3549;42.162;24.726;2022-09-19T04:06:26;47615.19;;;-141.97;65.69
7018;BME280;3549;42.162;24.726;2022-09-19T04:08:51;47669.00;;;-141.97;65.74
7018;BME280;3549;42.162;24.726;2022-09-19T04:11:17;47644.00;;;-141.97;65.25
7018;BME280;3549;42.162;24.726;2022-09-19T04:13:42;47607.50;;;-141.97;64.71
7018;BME280;3549;42.162;24.726;2022-09-19T04:16:08;47672.84;;;-141.97;64.28
7018;BME280;3549;42.162;24.726;2022-09-19T04:18:34;47669.00;;;-141.97;64.18
7018;BME280;3549;42.162;24.726;2022-09-19T04:21:00;47722.81;;;-141.97;63.89
7018;BME280;3549;42.162;24.726;2022-09-19T04:23:26;47661.31;;;-141.97;64.51
7018;BME280;3549;42.162;24.726;2022-09-19T04:25:52;47680.53;;;-141.97;65.51
7018;BME280;3549;42.162;24.726;2022-09-19T04:28:17;47632.47;;;-141.97;65.20
7018;BME280;3549;42.162;24.726;2022-09-19T04:30:44;47626.72;;;-141.97;65.75
7018;BME280;3549;42.162;24.726;2022-09-19T04:33:12;47665.16;;;-141.97;65.35
7018;BME280;3549;42.162;24.726;2022-09-19T04:35:38;47630.56;;;-141.97;65.38
7018;BME280;3549;42.162;24.726;2022-09-19T04:38:09;47757.41;;;-141.97;65.27
7018;BME280;3549;42.162;24.726;2022-09-19T04:40:38;47651.69;;;-141.97;64.69
7018;BME280;3549;42.162;24.726;2022-09-19T04:43:05;47657.47;;;-141.97;64.18
7018;BME280;3549;42.162;24.726;2022-09-19T04:45:30;47778.56;;;-141.97;62.90
7018;BME280;3549;42.162;24.726;2022-09-19T04:47:56;47584.44;;;-141.97;63.24
7018;BME280;3549;42.162;24.726;2022-09-19T04:50:24;47672.84;;;-141.97;62.94
7018;BME280;3549;42.162;24.726;2022-09-19T04:52:50;47707.44;;;-141.97;62.52
7018;BME280;3549;42.162;24.726;2022-09-19T04:55:18;47676.69;;;-141.97;61.76
7018;BME280;3549;42.162;24.726;2022-09-19T04:57:43;47653.63;;;-141.97;61.04
7018;BME280;3549;42.162;24.726;2022-09-19T05:00:10;47619.03;;;-141.97;61.42
7018;BME280;3549;42.162;24.726;2022-09-19T05:02:36;47569.06;;;-141.97;61.55
7018;BME280;3549;42.162;24.726;2022-09-19T05:05:03;47747.81;;;-141.97;61.19
7018;BME280;3549;42.162;24.726;2022-09-19T05:07:29;47644.00;;;-141.97;61.02
7018;BME280;3549;42.162;24.726;2022-09-19T05:10:00;47644.00;;;-141.97;61.01
7018;BME280;3549;42.162;24.726;2022-09-19T05:12:26;47653.63;;;-141.97;61.04
7018;BME280;3549;42.162;24.726;2022-09-19T05:14:53;47634.41;;;-141.97;61.00
7018;BME280;3549;42.162;24.726;2022-09-19T05:17:18;47670.91;;;-141.97;60.44
7018;BME280;3549;42.162;24.726;2022-09-19T05:19:44;47626.72;;;-141.97;60.37
7018;BME280;3549;42.162;24.726;2022-09-19T05:22:10;47626.72;;;-141.97;60.71
7018;BME280;3549;42.162;24.726;2022-09-19T05:24:35;47669.00;;;-141.97;60.41
7018;BME280;3549;42.162;24.726;2022-09-19T05:27:03;47634.41;;;-141.97;60.38
7018;BME280;3549;42.162;24.726;2022-09-19T05:29:28;47657.47;;;-141.97;60.04
7018;BME280;3549;42.162;24.726;2022-09-19T05:31:54;47659.38;;;-141.97;60.47
7018;BME280;3549;42.162;24.726;2022-09-19T05:34:26;47676.69;;;-141.97;60.84
7018;BME280;3549;42.162;24.726;2022-09-19T05:36:52;47690.16;;;-141.97;60.26
7018;BME280;3549;42.162;24.726;2022-09-19T05:39:18;47636.31;;;-141.97;60.11
7018;BME280;3549;42.162;24.726;2022-09-19T05:41:43;47620.94;;;-141.97;59.54
7018;BME280;3549;42.162;24.726;2022-09-19T05:44:09;47617.09;;;-141.97;59.20
7018;BME280;3549;42.162;24.726;2022-09-19T05:46:34;47674.78;;;-141.97;59.02
7018;BME280;3549;42.162;24.726;2022-09-19T05:48:59;47617.09;;;-141.97;57.93
7018;BME280;3549;42.162;24.726;2022-09-19T05:51:25;47651.69;;;-141.97;58.02
7018;BME280;3549;42.162;24.726;2022-09-19T05:53:50;47647.84;;;-141.97;57.89
7018;BME280;3549;42.162;24.726;2022-09-19T05:56:18;47661.31;;;-141.97;57.88
7018;BME280;3549;42.162;24.726;2022-09-19T05:58:44;47695.91;;;-141.97;57.78
7018;BME280;3549;42.162;24.726;2022-09-19T06:01:11;47628.63;;;-141.97;57.63
7018;BME280;3549;42.162;24.726;2022-09-19T06:03:38;47692.06;;;-141.97;56.40
7018;BME280;3549;42.162;24.726;2022-09-19T06:06:11;47649.78;;;-141.97;56.69
7018;BME280;3549;42.162;24.726;2022-09-19T06:08:40;47649.78;;;-141.97;56.57
7018;BME280;3549;42.162;24.726;2022-09-19T06:11:06;47651.69;;;-141.97;55.86
7018;BME280;3549;42.162;24.726;2022-09-19T06:13:32;47665.16;;;-141.97;55.79
7018;BME280;3549;42.162;24.726;2022-09-19T06:16:16;47653.63;;;-141.97;55.73
7018;BME280;3549;42.162;24.726;2022-09-19T06:18:43;47620.94;;;-141.97;55.22
7018;BME280;3549;42.162;24.726;2022-09-19T06:21:09;47626.72;;;-141.97;54.57
7018;BME280;3549;42.162;24.726;2022-09-19T06:23:35;47653.63;;;-141.97;53.86
7018;BME280;3549;42.162;24.726;2022-09-19T06:26:00;47659.38;;;-141.97;53.40
7018;BME280;3549;42.162;24.726;2022-09-19T06:28:26;47634.41;;;-141.97;52.62
7018;BME280;3549;42.162;24.726;2022-09-19T06:30:51;47630.56;;;-141.97;52.24
7018;BME280;3549;42.162;24.726;2022-09-19T06:33:18;47603.66;;;-141.97;51.25
7018;BME280;3549;42.162;24.726;2022-09-19T06:35:43;47626.72;;;-141.97;49.99
7018;BME280;3549;42.162;24.726;2022-09-19T06:38:09;47626.72;;;-141.97;50.64
7018;BME280;3549;42.162;24.726;2022-09-19T06:40:34;47634.41;;;-141.97;49.97
7018;BME280;3549;42.162;24.726;2022-09-19T06:43:05;47638.25;;;-141.97;50.02
7018;BME280;3549;42.162;24.726;2022-09-19T06:45:35;47669.00;;;-141.97;49.74
7018;BME280;3549;42.162;24.726;2022-09-19T06:48:04;47726.66;;;-141.97;49.88
7018;BME280;3549;42.162;24.726;2022-09-19T06:50:30;47607.50;;;-141.97;48.65
7018;BME280;3549;42.162;24.726;2022-09-19T06:52:56;47619.03;;;-141.97;48.34
7018;BME280;3549;42.162;24.726;2022-09-19T06:55:22;47603.66;;;-141.97;47.49
7018;BME280;3549;42.162;24.726;2022-09-19T06:57:59;47730.50;;;-141.97;47.49
7018;BME280;3549;42.162;24.726;2022-09-19T07:00:29;47642.09;;;-141.97;47.31
7018;BME280;3549;42.162;24.726;2022-09-19T07:03:03;47622.88;;;-141.97;46.12
7018;BME280;3549;42.162;24.726;2022-09-19T07:05:33;47615.19;;;-141.97;45.90
7018;BME280;3549;42.162;24.726;2022-09-19T07:07:59;47640.16;;;-141.97;44.85
7018;BME280;3549;42.162;24.726;2022-09-19T07:10:25;47649.78;;;-141.97;43.87
7018;BME280;3549;42.162;24.726;2022-09-19T07:12:56;47657.47;;;-141.97;44.44
7018;BME280;3549;42.162;24.726;2022-09-19T07:15:23;47655.53;;;-141.97;44.87
7018;BME280;3549;42.162;24.726;2022-09-19T07:17:49;47655.53;;;-141.97;45.04
7018;BME280;3549;42.162;24.726;2022-09-19T07:20:14;47632.47;;;-141.97;44.25
7018;BME280;3549;42.162;24.726;2022-09-19T07:22:40;47601.72;;;-141.97;43.79
7018;BME280;3549;42.162;24.726;2022-09-19T07:25:06;47611.34;;;-141.97;43.28
7018;BME280;3549;42.162;24.726;2022-09-19T07:27:34;47622.88;;;-141.97;42.27
7018;BME280;3549;42.162;24.726;2022-09-19T07:29:59;47611.34;;;-141.97;42.41
7018;BME280;3549;42.162;24.726;2022-09-19T07:32:26;47634.41;;;-141.97;42.10
7018;BME280;3549;42.162;24.726;2022-09-19T07:34:51;47592.13;;;-141.97;41.04
7018;BME280;3549;42.162;24.726;2022-09-19T07:37:17;47624.78;;;-141.97;40.66
7018;BME280;3549;42.162;24.726;2022-09-19T07:39:43;47582.50;;;-141.97;39.94
7018;BME280;3549;42.162;24.726;2022-09-19T07:42:08;47609.41;;;-141.97;39.66
7018;BME280;3549;42.162;24.726;2022-09-19T07:44:33;47597.88;;;-141.97;39.07
7018;BME280;3549;42.162;24.726;2022-09-19T07:46:59;47595.97;;;-141.97;39.19
7018;BME280;3549;42.162;24.726;2022-09-19T07:49:42;47595.97;;;-141.97;38.60
7018;BME280;3549;42.162;24.726;2022-09-19T07:52:08;47594.03;;;-141.97;38.05
7018;BME280;3549;42.162;24.726;2022-09-19T07:54:33;47622.88;;;-141.97;38.17
7018;BME280;3549;42.162;24.726;2022-09-19T07:56:58;47576.75;;;-141.97;38.77
7018;BME280;3549;42.162;24.726;2022-09-19T07:59:25;47599.81;;;-141.97;38.64
7018;BME280;3549;42.162;24.726;2022-09-19T08:01:50;47619.03;;;-141.97;37.88
7018;BME280;3549;42.162;24.726;2022-09-19T08:04:15;47578.66;;;-141.97;37.48
7018;BME280;3549;42.162;24.726;2022-09-19T08:06:41;47607.50;;;-141.97;36.85
7018;BME280;3549;42.162;24.726;2022-09-19T08:09:06;47553.69;;;-141.97;36.56
7018;BME280;3549;42.162;24.726;2022-09-19T08:11:34;47559.44;;;-141.97;35.66
7018;BME280;3549;42.162;24.726;2022-09-19T08:14:02;47551.75;;;-141.97;35.97
7018;BME280;3549;42.162;24.726;2022-09-19T08:16:28;47592.13;;;-141.97;36.47
7018;BME280;3549;42.162;24.726;2022-09-19T08:18:53;47551.75;;;-141.97;37.15
7018;BME280;3549;42.162;24.726;2022-09-19T08:21:18;47576.75;;;-141.97;36.08
7018;BME280;3549;42.162;24.726;2022-09-19T08:23:45;47570.97;;;-141.97;36.11
7018;BME280;3549;42.162;24.726;2022-09-19T08:26:11;47553.69;;;-141.97;35.89
7018;BME280;3549;42.162;24.726;2022-09-19T08:28:36;47572.91;;;-141.97;36.75
7018;BME280;3549;42.162;24.726;2022-09-19T08:31:02;47557.53;;;-141.97;36.25
7018;BME280;3549;42.162;24.726;2022-09-19T08:33:29;47584.44;;;-141.97;35.89
7018;BME280;3549;42.162;24.726;2022-09-19T08:35:57;47565.22;;;-141.97;35.60
7018;BME280;3549;42.162;24.726;2022-09-19T08:38:23;47580.59;;;-141.97;35.47
7018;BME280;3549;42.162;24.726;2022-09-19T08:43:39;47540.22;;;-141.97;35.37
7018;BME280;3549;42.162;24.726;2022-09-19T08:51:19;47561.38;;;-141.97;33.26
7018;BME280;3549;42.162;24.726;2022-09-19T08:53:50;47657.47;;;-141.97;34.16
7018;BME280;3549;42.162;24.726;2022-09-19T08:56:17;47578.66;;;-141.97;33.26
7018;BME280;3549;42.162;24.726;2022-09-19T08:58:49;47563.28;;;-141.97;33.34
7018;BME280;3549;42.162;24.726;2022-09-19T09:01:17;47580.59;;;-141.97;33.01
7018;BME280;3549;42.162;24.726;2022-09-19T09:03:57;47538.28;;;-141.97;33.35
7018;BME280;3549;42.162;24.726;2022-09-19T09:06:39;47563.28;;;-141.97;32.77
7018;BME280;3549;42.162;24.726;2022-09-19T09:14:26;47578.66;;;-141.97;35.25
7018;BME280;3549;42.162;24.726;2022-09-19T09:17:11;47519.06;;;-141.97;34.85
7018;BME280;3549;42.162;24.726;2022-09-19T09:25:12;47503.69;;;-141.97;34.04
7018;BME280;3549;42.162;24.726;2022-09-19T09:27:55;47507.53;;;-141.97;33.64
7018;BME280;3549;42.162;24.726;2022-09-19T09:30:22;47553.69;;;-141.97;33.06
7018;BME280;3549;42.162;24.726;2022-09-19T09:32:51;47497.94;;;-141.97;32.57
7018;BME280;3549;42.162;24.726;2022-09-19T09:35:33;47521.00;;;-141.97;33.10
7018;BME280;3549;42.162;24.726;2022-09-19T09:38:12;47569.06;;;-141.97;32.12
7018;BME280;3549;42.162;24.726;2022-09-19T09:40:52;47524.84;;;-141.97;31.99
7018;BME280;3549;42.162;24.726;2022-09-19T09:46:24;47534.44;;;-141.97;31.80
7018;BME280;3549;42.162;24.726;2022-09-19T09:48:56;47526.75;;;-141.97;31.56
7018;BME280;3549;42.162;24.726;2022-09-19T09:58:00;47549.84;;;-141.97;31.55
7018;BME280;3549;42.162;24.726;2022-09-19T10:00:29;47546.00;;;-141.97;31.53
7018;BME280;3549;42.162;24.726;2022-09-19T10:03:43;47540.22;;;-141.97;30.92
7018;BME280;3549;42.162;24.726;2022-09-19T10:06:30;47511.38;;;-141.97;31.07
7018;BME280;3549;42.162;24.726;2022-09-19T10:09:16;47561.38;;;-141.97;30.75
7018;BME280;3549;42.162;24.726;2022-09-19T10:14:16;47542.16;;;-141.97;30.95
7018;BME280;3549;42.162;24.726;2022-09-19T10:16:46;47524.84;;;-141.97;31.03
7018;BME280;3549;42.162;24.726;2022-09-19T10:19:25;47530.59;;;-141.97;29.62
7018;BME280;3549;42.162;24.726;2022-09-19T10:21:54;47553.69;;;-141.97;29.76
7018;BME280;3549;42.162;24.726;2022-09-19T10:24:49;47505.63;;;-141.97;29.91
7018;BME280;3549;42.162;24.726;2022-09-19T10:30:02;47542.16;;;-141.97;28.69
7018;BME280;3549;42.162;24.726;2022-09-19T10:32:33;47494.09;;;-141.97;29.08
7018;BME280;3549;42.162;24.726;2022-09-19T10:40:25;47540.22;;;-141.97;28.43
7018;BME280;3549;42.162;24.726;2022-09-19T10:42:53;47544.06;;;-141.97;28.14
7018;BME280;3549;42.162;24.726;2022-09-19T10:47:59;47536.38;;;-141.97;29.08
7018;BME280;3549;42.162;24.726;2022-09-19T10:50:26;47492.16;;;-141.97;28.96
7018;BME280;3549;42.162;24.726;2022-09-19T10:52:59;47526.75;;;-141.97;28.71
7018;BME280;3549;42.162;24.726;2022-09-19T10:55:26;47515.22;;;-141.97;28.95
7018;BME280;3549;42.162;24.726;2022-09-19T10:57:56;47542.16;;;-141.97;28.73
7018;BME280;3549;42.162;24.726;2022-09-19T11:00:31;47519.06;;;-141.97;28.24
7018;BME280;3549;42.162;24.726;2022-09-19T11:03:15;47519.06;;;-141.97;28.43
7018;BME280;3549;42.162;24.726;2022-09-19T11:05:42;47530.59;;;-141.97;28.29
7018;BME280;3549;42.162;24.726;2022-09-19T11:08:40;47497.94;;;-141.97;27.63
7018;BME280;3549;42.162;24.726;2022-09-19T11:11:32;47507.53;;;-141.97;27.55
7018;BME280;3549;42.162;24.726;2022-09-19T11:27:51;47538.28;;;-141.97;28.47
7018;BME280;3549;42.162;24.726;2022-09-19T11:30:25;47515.22;;;-141.97;28.81
7018;BME280;3549;42.162;24.726;2022-09-19T11:35:23;47532.53;;;-141.97;28.79
7018;BME280;3549;42.162;24.726;2022-09-19T11:40:42;47530.59;;;-141.97;28.52
7018;BME280;3549;42.162;24.726;2022-09-19T11:46:30;47492.16;;;-141.97;27.48
7018;BME280;3549;42.162;24.726;2022-09-19T11:56:55;47501.78;;;-141.97;28.29
7018;BME280;3549;42.162;24.726;2022-09-19T11:59:47;47465.25;;;-141.97;28.36
7018;BME280;3549;42.162;24.726;2022-09-19T12:10:21;47465.25;;;-141.97;27.63
7018;BME280;3549;42.162;24.726;2022-09-19T12:15:30;47428.75;;;-141.97;27.61
7018;BME280;3549;42.162;24.726;2022-09-19T12:18:17;47476.78;;;-141.97;28.12
7018;BME280;3549;42.162;24.726;2022-09-19T12:20:49;47463.34;;;-141.97;27.80
7018;BME280;3549;42.162;24.726;2022-09-19T12:26:20;47484.47;;;-141.97;28.08
7018;BME280;3549;42.162;24.726;2022-09-19T12:29:03;47438.34;;;-141.97;27.76
7018;BME280;3549;42.162;24.726;2022-09-19T12:31:34;47474.88;;;-141.97;27.32
7018;BME280;3549;42.162;24.726;2022-09-19T12:34:08;47444.13;;;-141.97;27.16
7018;BME280;3549;42.162;24.726;2022-09-19T12:37:01;47478.72;;;-141.97;27.50
7018;BME280;3549;42.162;24.726;2022-09-19T12:42:04;47457.56;;;-141.97;26.87
7018;BME280;3549;42.162;24.726;2022-09-19T12:44:58;47432.59;;;-141.97;26.82
7018;BME280;3549;42.162;24.726;2022-09-19T12:47:44;47426.81;;;-141.97;25.95
7018;BME280;3549;42.162;24.726;2022-09-19T12:50:25;47411.44;;;-141.97;26.32
7018;BME280;3549;42.162;24.726;2022-09-19T12:55:39;47396.06;;;-141.97;26.07
7018;BME280;3549;42.162;24.726;2022-09-19T12:58:19;47426.81;;;-141.97;26.50
7018;BME280;3549;42.162;24.726;2022-09-19T13:00:51;47605.56;;;-141.97;26.27
7018;BME280;3549;42.162;24.726;2022-09-19T13:03:26;47413.38;;;-141.97;25.77
7018;BME280;3549;42.162;24.726;2022-09-19T13:06:01;47430.66;;;-141.97;25.88
7018;BME280;3549;42.162;24.726;2022-09-19T13:08:35;47415.28;;;-141.97;25.75
7018;BME280;3549;42.162;24.726;2022-09-19T13:11:08;47428.75;;;-141.97;25.90
7018;BME280;3549;42.162;24.726;2022-09-19T13:16:33;47447.97;;;-141.97;26.67
7018;BME280;3549;42.162;24.726;2022-09-19T13:19:01;47392.22;;;-141.97;26.15
7018;BME280;3549;42.162;24.726;2022-09-19T13:21:50;47415.28;;;-141.97;26.18
7018;BME280;3549;42.162;24.726;2022-09-19T13:27:11;47407.59;;;-141.97;25.92
7018;BME280;3549;42.162;24.726;2022-09-19T13:35:15;47403.75;;;-141.97;25.05
7018;BME280;3549;42.162;24.726;2022-09-19T13:53:40;47340.34;;;-141.97;24.52
7018;BME280;3549;42.162;24.726;2022-09-19T13:56:22;47296.13;;;-141.97;24.73
7018;BME280;3549;42.162;24.726;2022-09-19T13:59:19;47374.94;;;-141.97;24.69
7018;BME280;3549;42.162;24.726;2022-09-19T14:07:33;47267.31;;;-141.97;23.93
7018;BME280;3549;42.162;24.726;2022-09-19T14:12:55;47324.97;;;-141.97;23.96
7018;BME280;3549;42.162;24.726;2022-09-19T14:20:57;47290.38;;;-141.97;23.79
7018;BME280;3549;42.162;24.726;2022-09-19T14:23:32;47303.81;;;-141.97;24.21
7018;BME280;3549;42.162;24.726;2022-09-19T14:41:39;47286.53;;;-141.97;23.61
7018;BME280;3549;42.162;24.726;2022-09-19T14:44:46;47311.50;;;-141.97;23.87
7018;BME280;3549;42.162;24.726;2022-09-19T14:47:20;47315.34;;;-141.97;24.18
7018;BME280;3549;42.162;24.726;2022-09-19T14:49:55;47307.66;;;-141.97;24.21
7018;BME280;3549;42.162;24.726;2022-09-19T14:52:25;47257.69;;;-141.97;24.09
7018;BME280;3549;42.162;24.726;2022-09-19T14:55:02;47303.81;;;-141.97;24.02
7018;BME280;3549;42.162;24.726;2022-09-19T14:57:31;47280.75;;;-141.97;23.52
7018;BME280;3549;42.162;24.726;2022-09-19T15:00:28;47276.91;;;-141.97;23.53
7018;BME280;3549;42.162;24.726;2022-09-19T15:02:55;47282.69;;;-141.97;23.55
7018;BME280;3549;42.162;24.726;2022-09-19T15:05:27;47292.28;;;-141.97;23.88
7018;BME280;3549;42.162;24.726;2022-09-19T15:07:54;47273.06;;;-141.97;23.53
7018;BME280;3549;42.162;24.726;2022-09-19T15:12:53;47242.31;;;-141.97;23.76
7018;BME280;3549;42.162;24.726;2022-09-19T15:15:22;47246.16;;;-141.97;23.73
7018;BME280;3549;42.162;24.726;2022-09-19T15:17:50;47242.31;;;-141.97;24.00
7018;BME280;3549;42.162;24.726;2022-09-19T15:20:17;47246.16;;;-141.97;23.63
7018;BME280;3549;42.162;24.726;2022-09-19T15:22:52;47292.28;;;-141.97;23.85
7018;BME280;3549;42.162;24.726;2022-09-19T15:25:29;47259.63;;;-141.97;23.89
7018;BME280;3549;42.162;24.726;2022-09-19T15:28:00;47269.22;;;-141.97;24.15
7018;BME280;3549;42.162;24.726;2022-09-19T15:30:33;47253.84;;;-141.97;23.69
7018;BME280;3549;42.162;24.726;2022-09-19T15:33:16;47284.59;;;-141.97;24.29
7018;BME280;3549;42.162;24.726;2022-09-19T15:35:45;47226.94;;;-141.97;23.96
7018;BME280;3549;42.162;24.726;2022-09-19T15:38:25;47294.22;;;-141.97;24.16
7018;BME280;3549;42.162;24.726;2022-09-19T15:40:54;47261.53;;;-141.97;24.70
7018;BME280;3549;42.162;24.726;2022-09-19T15:43:22;47582.50;;;-141.97;24.88
7018;BME280;3549;42.162;24.726;2022-09-19T15:45:50;47344.19;;;-141.97;26.17
7018;BME280;3549;42.162;24.726;2022-09-19T15:48:31;47388.38;;;-141.97;28.13
7018;BME280;3549;42.162;24.726;2022-09-19T15:51:00;47363.41;;;-141.97;29.20
7018;BME280;3549;42.162;24.726;2022-09-19T15:53:37;47390.31;;;-141.97;30.49
7018;BME280;3549;42.162;24.726;2022-09-19T15:56:11;47413.38;;;-141.97;30.67
7018;BME280;3549;42.162;24.726;2022-09-19T15:58:43;47419.13;;;-141.97;31.47
7018;BME280;3549;42.162;24.726;2022-09-19T16:01:15;47442.19;;;-141.97;33.72
7018;BME280;3549;42.162;24.726;2022-09-19T16:03:54;47469.09;;;-141.97;33.74
7018;BME280;3549;42.162;24.726;2022-09-19T16:09:16;47701.69;;;-141.97;35.92
7018;BME280;3549;42.162;24.726;2022-09-19T16:11:43;47522.91;;;-141.97;34.13
7018;BME280;3549;42.162;24.726;2022-09-19T16:14:21;47440.28;;;-141.97;35.00
7018;BME280;3549;42.162;24.726;2022-09-19T16:16:51;47492.16;;;-141.97;38.09
7018;BME280;3549;42.162;24.726;2022-09-19T16:19:22;47486.41;;;-141.97;37.52